.
WxDataArchive / Data Records for 2011-08-16
2011-08-15 August 2011 2011-08-17

Data Records for Tuesday, 16 August 2011

Time	Temp	Chill	HIndex	Humid	Dewpt	 Wind 	HiWind	WindDir	Rain 	Barom 
-----	----	-----	------	-----	-----	------	------	-------	-----	----- 
00:00	65.0	65.0	65.0	75	56.9	0	0	---	0.00	29.958 
00:05	65.0	65.0	65.0	76	57.2	0	0	---	0.00	29.958 
00:10	64.8	64.8	64.8	76	57.0	0	0	---	0.00	29.958 
00:15	64.7	64.7	64.7	76	57.0	0	0	---	0.00	29.955 
00:20	64.7	64.7	64.7	76	57.0	0	0	---	0.00	29.955 
00:25	64.5	64.5	64.5	77	57.1	0	0	---	0.00	29.955 
00:30	64.3	64.3	64.3	77	56.9	0	0	---	0.00	29.966 
00:35	64.2	64.2	64.2	78	57.2	0	0	---	0.00	29.966 
00:40	64.0	64.0	64.0	78	57.0	0	0	---	0.00	29.966 
00:45	63.9	63.9	63.9	78	56.9	0	0	---	0.00	29.968 
00:50	63.7	63.7	63.7	79	57.1	0	0	---	0.00	29.968 
00:55	63.5	63.5	63.5	80	57.2	0	0	---	0.00	29.968 
01:00	63.5	63.5	63.5	80	57.2	0	0	---	0.00	29.969 
01:05	63.4	63.4	63.4	80	57.1	0	0	---	0.00	29.969 
01:10	63.4	63.4	63.4	81	57.5	0	0	---	0.00	29.969 
01:15	63.1	63.1	63.1	81	57.2	0	0	---	0.00	29.971 
01:20	62.9	62.9	62.9	81	57.0	0	0	---	0.00	29.971 
01:25	62.7	62.7	62.7	81	56.8	0	0	---	0.00	29.971 
01:30	62.4	62.4	62.4	82	56.8	0	0	---	0.00	29.972 
01:35	62.3	62.3	62.3	83	57.1	0	0	---	0.00	29.972 
01:40	62.0	62.0	62.0	84	57.1	0	0	---	0.00	29.972 
01:45	61.8	61.8	61.8	84	56.9	0	0	---	0.00	29.977 
01:50	61.6	61.6	61.6	84	56.7	0	0	---	0.00	29.977 
01:55	61.5	61.5	61.5	85	56.9	0	0	---	0.00	29.977 
02:00	61.3	61.3	61.3	85	56.7	0	0	---	0.00	29.978 
02:05	61.2	61.2	61.2	85	56.6	0	0	---	0.00	29.978 
02:10	61.2	61.2	61.2	86	57.0	0	0	---	0.00	29.978 
02:15	61.0	61.0	61.0	87	57.1	0	0	---	0.00	29.978 
02:20	61.0	61.0	61.0	87	57.1	0	0	---	0.00	29.978 
02:25	60.9	60.9	60.9	87	57.0	0	0	---	0.00	29.978 
02:30	60.7	60.7	60.7	88	57.1	0	0	---	0.00	29.982 
02:35	60.7	60.7	60.7	88	57.1	0	0	---	0.00	29.982 
02:40	60.5	60.5	60.5	88	56.9	0	0	---	0.00	29.982 
02:45	60.4	60.4	60.4	88	56.8	0	0	---	0.00	29.983 
02:50	60.2	60.2	60.2	88	56.6	0	0	---	0.00	29.983 
02:55	60.1	60.1	60.1	88	56.5	0	0	---	0.00	29.983 
03:00	60.1	60.1	60.1	89	56.8	0	0	---	0.00	29.984 
03:05	59.9	59.9	59.9	89	56.6	0	0	---	0.00	29.984 
03:10	59.9	59.9	59.9	90	57.0	0	0	---	0.00	29.984 
03:15	59.9	59.9	59.9	90	57.0	0	0	---	0.00	29.985 
03:20	59.8	59.8	59.8	90	56.9	0	0	---	0.00	29.985 
03:25	59.6	59.6	59.6	91	57.0	0	0	---	0.00	29.985 
03:30	59.6	59.6	59.6	91	57.0	0	0	---	0.00	29.987 
03:35	59.6	59.6	59.6	91	57.0	0	0	---	0.00	29.987 
03:40	59.6	59.6	59.6	91	57.0	0	0	---	0.00	29.987 
03:45	59.5	59.5	59.5	91	56.9	0	0	---	0.00	29.988 
03:50	59.5	59.5	59.5	92	57.2	0	0	---	0.00	29.988 
03:55	59.5	59.5	59.5	92	57.2	0	0	---	0.00	29.988 
04:00	59.3	59.3	59.3	92	57.0	0	0	---	0.00	29.988 
04:05	59.3	59.3	59.3	92	57.0	0	0	---	0.00	29.988 
04:10	59.2	59.2	59.2	92	56.9	0	0	---	0.00	29.988 
04:15	59.2	59.2	59.2	92	56.9	0	0	---	0.00	29.989 
04:20	59.3	59.3	59.3	92	57.0	0	0	---	0.00	29.989 
04:25	59.2	59.2	59.2	92	56.9	0	0	---	0.00	29.989 
04:30	59.2	59.2	59.2	92	56.9	0	0	---	0.00	29.992 
04:35	59.0	59.0	59.0	92	56.7	0	0	---	0.00	29.992 
04:40	59.0	59.0	59.0	92	56.7	0	0	---	0.00	29.992 
04:45	58.9	58.9	58.9	92	56.6	0	0	---	0.00	29.992 
04:50	58.7	58.7	58.7	93	56.7	0	0	---	0.00	29.992 
04:55	58.7	58.7	58.7	93	56.7	0	0	---	0.00	29.992 
05:00	58.7	58.7	58.7	93	56.7	0	0	---	0.00	29.992 
05:05	58.7	58.7	58.7	93	56.7	0	0	---	0.00	29.992 
05:10	58.7	58.7	58.7	93	56.7	0	0	---	0.00	29.992 
05:15	58.7	58.7	58.7	93	56.7	0	0	---	0.00	29.998 
05:20	58.6	58.6	58.6	93	56.6	0	0	---	0.00	29.998 
05:25	58.6	58.6	58.6	93	56.6	0	0	---	0.00	29.998 
05:30	58.6	58.6	58.6	93	56.6	0	0	---	0.00	30.003 
05:35	58.4	58.4	58.4	93	56.4	0	0	---	0.00	30.003 
05:40	58.3	58.3	58.3	93	56.3	0	0	---	0.00	30.003 
05:45	58.1	58.1	58.1	94	56.4	0	0	---	0.00	30.002 
05:50	58.1	58.1	58.1	94	56.4	0	0	---	0.00	30.002 
05:55	58.3	58.3	58.3	94	56.6	0	0	---	0.00	30.002 
06:00	58.4	58.4	58.4	94	56.7	0	0	---	0.00	30.004 
06:05	58.4	58.4	58.4	94	56.7	0	0	---	0.00	30.004 
06:10	58.3	58.3	58.3	94	56.6	0	0	---	0.00	30.004 
06:15	58.1	58.1	58.1	94	56.4	0	0	---	0.00	30.009 
06:20	58.0	58.0	58.0	94	56.3	0	0	---	0.00	30.009 
06:25	57.8	57.8	57.8	94	56.1	0	0	---	0.00	30.009 
06:30	57.8	57.8	57.8	94	56.1	0	0	---	0.00	30.016 
06:35	57.6	57.6	57.6	94	55.9	0	0	---	0.00	30.016 
06:40	57.5	57.5	57.5	94	55.8	0	0	---	0.00	30.016 
06:45	57.5	57.5	57.5	94	55.8	0	0	---	0.00	30.019 
06:50	57.3	57.3	57.3	94	55.6	0	0	---	0.00	30.019 
06:55	57.3	57.3	57.3	94	55.6	0	0	---	0.00	30.019 
07:00	57.5	57.5	57.5	94	55.8	0	0	---	0.00	30.022 
07:05	57.5	57.5	57.5	94	55.8	0	0	---	0.00	30.022 
07:10	57.5	57.5	57.5	94	55.8	0	0	---	0.00	30.022 
07:15	57.5	57.5	57.5	94	55.8	0	0	---	0.00	30.030 
07:20	57.5	57.5	57.5	94	55.8	0	0	---	0.00	30.030 
07:25	57.8	57.8	57.8	95	56.4	0	0	---	0.00	30.030 
07:30	58.1	58.1	58.1	95	56.7	0	0	---	0.00	30.031 
07:35	58.6	58.6	58.6	95	57.2	0	0	---	0.00	30.031 
07:40	59.0	59.0	59.0	95	57.6	0	0	---	0.00	30.031 
07:45	59.5	59.5	59.5	95	58.1	0	0	---	0.00	30.039 
07:50	59.9	59.9	59.9	95	58.5	0	0	---	0.00	30.039 
07:55	60.2	60.2	60.2	96	59.1	0	0	---	0.00	30.039 
08:00	60.7	60.7	60.7	95	59.3	0	0	---	0.00	30.039 
08:05	61.2	61.2	61.2	95	59.8	0	0	---	0.00	30.039 
08:10	61.6	61.6	61.6	95	60.2	0	1	315	0.00	30.039 
08:15	62.0	62.0	62.0	95	60.5	0	1	315	0.00	30.045 
08:20	62.4	62.4	62.4	95	60.9	0	1	315	0.00	30.045 
08:25	62.9	62.9	62.9	95	61.4	0	1	315	0.00	30.045 
08:30	63.5	63.5	63.5	94	61.7	0	0	---	0.00	30.051 
08:35	64.2	64.2	64.2	93	62.1	0	0	---	0.00	30.051 
08:40	64.7	64.7	64.7	92	62.3	0	0	---	0.00	30.051 
08:45	65.2	65.2	65.2	90	62.2	0	0	---	0.00	30.047 
08:50	65.8	65.8	65.8	88	62.1	0	0	---	0.00	30.047 
08:55	66.3	66.3	66.3	85	61.6	0	0	---	0.00	30.047 
09:00	66.8	66.8	66.8	84	61.8	0	0	---	0.00	30.048 
09:05	67.3	67.3	67.3	81	61.3	0	0	---	0.00	30.048 
09:10	67.8	67.8	67.8	80	61.4	0	0	---	0.00	30.048 
09:15	68.3	68.3	68.3	78	61.2	0	0	---	0.00	30.051 
09:20	68.8	68.8	68.8	78	61.7	0	0	---	0.00	30.051 
09:25	69.3	69.3	69.3	75	61.0	0	0	---	0.00	30.051 
09:30	69.8	69.8	69.8	75	61.5	0	0	---	0.00	30.049 
09:35	70.3	70.3	70.3	73	61.2	0	3	112	0.00	30.049 
09:40	70.9	70.9	70.9	73	61.8	0	1	112	0.00	30.049 
09:45	71.6	71.6	71.6	71	61.7	0	2	112	0.00	30.040 
09:50	72.1	72.1	72.1	68	60.9	1	2	112	0.00	30.040 
09:55	72.8	72.8	72.8	68	61.6	0	1	112	0.00	30.040 
10:00	73.3	73.3	73.3	65	60.8	0	1	112	0.00	30.032 
10:05	73.3	73.3	73.3	65	60.8	0	2	135	0.00	30.032 
10:10	73.9	73.9	73.9	62	60.0	0	0	---	0.00	30.032 
10:15	75.1	75.1	77.4	61	60.7	0	0	---	0.00	30.032 
10:20	75.8	75.8	77.9	58	59.9	0	1	135	0.00	30.032 
10:25	75.8	75.8	77.9	56	59.0	0	2	135	0.00	30.032 
10:30	76.0	76.0	78.1	56	59.2	0	2	135	0.00	30.023 
10:35	76.3	76.3	78.3	55	58.9	0	2	135	0.00	30.023 
10:40	76.5	76.5	78.4	54	58.6	1	2	135	0.00	30.023 
10:45	77.4	77.4	78.9	53	58.9	0	0	---	0.00	30.021 
10:50	78.3	78.3	79.4	50	58.1	0	1	135	0.00	30.021 
10:55	78.8	78.8	79.8	50	58.6	1	4	135	0.00	30.021 
11:00	78.6	78.6	79.7	51	58.9	1	3	68	0.00	30.018 
11:05	79.0	79.0	79.8	47	57.0	0	2	68	0.00	30.018 
11:10	79.4	79.4	79.6	41	53.6	0	3	68	0.00	30.018 
11:15	79.9	79.9	80.2	44	56.0	0	1	68	0.00	30.018 
11:20	80.5	80.5	80.6	43	55.9	1	3	68	0.00	30.018 
11:25	80.5	80.5	80.5	42	55.3	0	2	68	0.00	30.018 
11:30	80.7	80.7	80.4	40	54.1	0	1	68	0.00	30.027 
11:35	80.9	80.9	80.4	38	52.9	1	3	68	0.00	30.027 
11:40	80.5	80.5	80.1	38	52.5	1	3	68	0.00	30.027 
11:45	80.5	80.5	79.9	36	51.1	0	3	68	0.00	30.027 
11:50	80.9	80.9	80.3	37	52.2	1	4	90	0.00	30.027 
11:55	80.7	80.7	80.0	35	50.5	0	3	90	0.00	30.027 
12:00	80.7	80.7	80.2	37	52.0	1	4	90	0.00	30.028 
12:05	80.5	80.5	79.9	35	50.3	1	4	90	0.00	30.028 
12:10	80.7	80.7	80.1	36	51.2	1	3	90	0.00	30.028 
12:15	80.9	80.9	80.1	35	50.7	1	4	90	0.00	30.029 
12:20	80.7	80.7	80.2	37	52.0	1	4	90	0.00	30.029 
12:25	80.3	80.3	79.9	37	51.6	1	5	90	0.00	30.029 
12:30	80.9	80.9	80.4	38	52.9	0	1	112	0.00	30.030 
12:35	81.6	81.6	80.5	34	50.5	0	2	112	0.00	30.030 
12:40	82.0	82.0	80.8	34	50.8	0	2	112	0.00	30.030 
12:45	82.2	82.2	80.8	32	49.4	0	2	112	0.00	30.029 
12:50	82.4	82.4	81.1	34	51.2	1	3	112	0.00	30.029 
12:55	82.4	82.4	81.6	38	54.2	1	2	112	0.00	30.029 
13:00	82.4	82.4	81.1	34	51.2	1	3	112	0.00	30.031 
13:05	82.4	82.4	81.3	36	52.7	1	4	112	0.00	30.031 
13:10	82.4	82.4	81.3	36	52.7	1	4	90	0.00	30.031 
13:15	82.8	82.8	81.6	35	52.3	1	3	112	0.00	30.032 
13:20	83.2	83.2	81.7	33	51.1	1	4	112	0.00	30.032 
13:25	83.2	83.2	81.6	32	50.2	2	5	112	0.00	30.032 
13:30	82.6	82.6	81.5	36	52.9	1	3	112	0.00	30.032 
13:35	83.0	83.0	81.6	34	51.7	1	3	135	0.00	30.032 
13:40	83.2	83.2	82.0	36	53.4	1	3	135	0.00	30.032 
13:45	83.4	83.4	81.8	33	51.2	0	1	135	0.00	30.033 
13:50	84.1	84.1	82.5	34	52.7	0	3	135	0.00	30.033 
13:55	84.3	84.3	82.7	34	52.8	0	2	135	0.00	30.033 
14:00	84.0	84.0	82.3	33	51.8	0	1	135	0.00	30.033 
14:05	83.8	83.8	82.4	35	53.2	1	2	292	0.00	30.033 
14:10	83.8	83.8	81.9	31	49.9	1	4	292	0.00	30.033 
14:15	83.4	83.4	81.6	31	49.6	0	2	270	0.00	30.035 
14:20	83.2	83.2	81.9	35	52.7	0	1	292	0.00	30.035 
14:25	83.4	83.4	81.8	33	51.2	1	4	292	0.00	30.035 
14:30	84.1	84.1	82.8	36	54.2	0	2	45	0.00	30.041 
14:35	85.1	85.1	83.8	36	55.1	0	2	22	0.00	30.041 
14:40	85.7	85.7	83.6	31	51.5	1	5	90	0.00	30.041 
14:45	85.1	85.1	83.3	33	52.7	1	5	270	0.00	30.036 
14:50	84.9	84.9	83.4	35	54.2	1	3	270	0.00	30.036 
14:55	84.9	84.9	83.0	32	51.7	1	4	270	0.00	30.036 
15:00	84.1	84.1	82.4	33	51.9	2	4	338	0.00	30.033 
15:05	83.8	83.8	82.3	34	52.4	2	5	270	0.00	30.033 
15:10	83.8	83.8	82.5	36	54.0	1	3	68	0.00	30.033 
15:15	84.0	84.0	82.5	34	52.6	1	5	68	0.00	30.035 
15:20	83.8	83.8	82.4	35	53.2	3	5	270	0.00	30.035 
15:25	83.6	83.6	82.2	35	53.0	2	4	292	0.00	30.035 
15:30	83.8	83.8	82.1	32	50.8	1	3	270	0.00	30.033 
15:35	84.1	84.1	82.5	34	52.7	1	2	270	0.00	30.033 
15:40	84.5	84.5	82.8	33	52.2	0	1	270	0.00	30.033 
15:45	85.1	85.1	83.3	33	52.7	1	3	270	0.00	30.032 
15:50	85.3	85.3	83.4	32	52.1	1	4	270	0.00	30.032 
15:55	85.5	85.5	83.7	33	53.1	1	4	270	0.00	30.032 
16:00	85.5	85.5	83.4	31	51.4	1	4	270	0.00	30.031 
16:05	85.7	85.7	83.7	32	52.4	1	3	270	0.00	30.031 
16:10	85.7	85.7	83.4	29	49.7	1	4	270	0.00	30.031 
16:15	85.5	85.5	83.4	31	51.4	1	4	315	0.00	30.025 
16:20	85.1	85.1	82.9	30	50.1	1	3	292	0.00	30.025 
16:25	84.5	84.5	82.3	29	48.7	2	4	270	0.00	30.025 
16:30	84.1	84.1	82.0	29	48.4	1	5	270	0.00	30.023 
16:35	84.1	84.1	82.1	30	49.3	1	3	292	0.00	30.023 
16:40	84.3	84.3	82.5	32	51.2	0	1	90	0.00	30.023 
16:45	84.9	84.9	83.0	32	51.7	0	5	90	0.00	30.019 
16:50	85.1	85.1	83.1	31	51.0	0	3	90	0.00	30.019 
16:55	84.9	84.9	82.6	28	48.1	0	3	68	0.00	30.019 
17:00	84.7	84.7	82.7	31	50.7	0	2	68	0.00	30.018 
17:05	84.5	84.5	82.5	31	50.5	0	1	68	0.00	30.018 
17:10	84.5	84.5	82.3	29	48.7	0	3	68	0.00	30.018 
17:15	84.7	84.7	82.8	32	51.5	0	2	68	0.00	30.018 
17:20	84.7	84.7	82.7	31	50.7	1	2	68	0.00	30.018 
17:25	84.7	84.7	82.6	30	49.8	1	3	68	0.00	30.018 
17:30	84.9	84.9	83.0	32	51.7	0	2	68	0.00	30.019 
17:35	85.1	85.1	83.1	31	51.0	0	2	68	0.00	30.019 
17:40	85.3	85.3	83.4	32	52.1	0	1	68	0.00	30.019 
17:45	85.1	85.1	83.2	32	51.9	0	2	338	0.00	30.018 
17:50	84.7	84.7	83.1	34	53.2	1	3	292	0.00	30.018 
17:55	84.1	84.1	82.5	34	52.7	0	1	0	0.00	30.018 
18:00	83.6	83.6	82.4	36	53.8	0	1	0	0.00	30.019 
18:05	83.0	83.0	82.1	38	54.7	0	2	0	0.00	30.019 
18:10	83.0	83.0	81.8	36	53.3	1	3	22	0.00	30.019 
18:15	83.0	83.0	82.0	37	54.0	0	2	248	0.00	30.020 
18:20	82.8	82.8	81.8	37	53.8	1	4	248	0.00	30.020 
18:25	82.6	82.6	81.6	37	53.7	0	2	292	0.00	30.020 
18:30	82.6	82.6	81.7	38	54.4	0	1	292	0.00	30.020 
18:35	82.4	82.4	81.6	38	54.2	0	1	292	0.00	30.020 
18:40	82.2	82.2	81.4	38	54.0	0	2	292	0.00	30.020 
18:45	82.4	82.4	81.6	38	54.2	0	1	292	0.00	30.019 
18:50	82.4	82.4	81.6	38	54.2	0	2	292	0.00	30.019 
18:55	82.2	82.2	81.4	38	54.0	1	3	292	0.00	30.019 
19:00	81.8	81.8	81.2	39	54.4	0	1	292	0.00	30.020 
19:05	81.6	81.6	81.0	39	54.2	0	1	292	0.00	30.020 
19:10	81.4	81.4	80.9	39	54.0	0	1	292	0.00	30.020 
19:15	81.4	81.4	81.0	40	54.7	0	1	292	0.00	30.019 
19:20	81.4	81.4	81.0	40	54.7	0	1	292	0.00	30.019 
19:25	81.2	81.2	80.8	40	54.6	0	2	292	0.00	30.019 
19:30	81.1	81.1	80.8	41	55.1	0	1	292	0.00	30.022 
19:35	80.9	80.9	80.7	41	55.0	0	1	292	0.00	30.022 
19:40	80.5	80.5	80.6	43	55.9	0	1	292	0.00	30.022 
19:45	80.1	80.1	80.3	44	56.2	0	1	292	0.00	30.028 
19:50	79.8	79.8	80.2	45	56.5	0	3	22	0.00	30.028 
19:55	79.4	79.4	80.0	46	56.8	0	3	45	0.00	30.028 
20:00	79.2	79.2	79.8	46	56.6	0	1	22	0.00	30.030 
20:05	78.8	78.8	79.6	46	56.2	0	1	22	0.00	30.030 
20:10	78.6	78.6	79.5	47	56.7	0	1	22	0.00	30.030 
20:15	78.3	78.3	79.3	47	56.4	0	2	22	0.00	30.030 
20:20	77.9	77.9	79.1	48	56.6	0	2	22	0.00	30.030 
20:25	77.6	77.6	78.9	49	56.9	0	2	22	0.00	30.030 
20:30	77.2	77.2	78.7	50	57.1	0	1	22	0.00	30.031 
20:35	76.8	76.8	78.5	51	57.3	0	1	22	0.00	30.031 
20:40	76.5	76.5	78.4	52	57.5	0	0	---	0.00	30.031 
20:45	76.0	76.0	78.1	52	57.1	0	1	22	0.00	30.031 
20:50	75.6	75.6	77.9	54	57.8	0	2	22	0.00	30.031 
20:55	75.3	75.3	77.7	54	57.5	0	0	---	0.00	30.031 
21:00	74.9	74.9	74.9	54	57.1	0	1	22	0.00	30.031 
21:05	74.6	74.6	74.6	55	57.3	0	1	22	0.00	30.031 
21:10	74.2	74.2	74.2	56	57.5	0	0	---	0.00	30.031 
21:15	73.9	73.9	73.9	57	57.7	0	0	---	0.00	30.029 
21:20	73.3	73.3	73.3	58	57.6	0	0	---	0.00	30.029 
21:25	73.0	73.0	73.0	58	57.3	0	0	---	0.00	30.029 
21:30	72.7	72.7	72.7	59	57.5	0	0	---	0.00	30.031 
21:35	72.3	72.3	72.3	60	57.6	0	0	---	0.00	30.031 
21:40	72.1	72.1	72.1	61	57.9	0	0	---	0.00	30.031 
21:45	71.8	71.8	71.8	62	58.1	0	0	---	0.00	30.034 
21:50	71.5	71.5	71.5	62	57.8	0	0	---	0.00	30.034 
21:55	71.1	71.1	71.1	62	57.4	0	0	---	0.00	30.034 
22:00	70.9	70.9	70.9	63	57.7	0	0	---	0.00	30.035 
22:05	70.6	70.6	70.6	64	57.8	0	0	---	0.00	30.035 
22:10	70.3	70.3	70.3	65	58.0	0	0	---	0.00	30.035 
22:15	70.1	70.1	70.1	65	57.8	0	0	---	0.00	30.033 
22:20	69.8	69.8	69.8	66	57.9	0	0	---	0.00	30.033 
22:25	69.6	69.6	69.6	66	57.7	0	0	---	0.00	30.033 
22:30	69.3	69.3	69.3	67	57.9	0	0	---	0.00	30.037 
22:35	69.1	69.1	69.1	67	57.7	0	0	---	0.00	30.037 
22:40	68.9	68.9	68.9	68	57.9	0	0	---	0.00	30.037 
22:45	68.8	68.8	68.8	69	58.2	0	0	---	0.00	30.041 
22:50	68.4	68.4	68.4	70	58.2	0	0	---	0.00	30.041 
22:55	68.3	68.3	68.3	70	58.1	0	0	---	0.00	30.041 
23:00	68.1	68.1	68.1	71	58.3	0	0	---	0.00	30.044 
23:05	67.9	67.9	67.9	71	58.1	0	0	---	0.00	30.044 
23:10	67.6	67.6	67.6	72	58.2	0	0	---	0.00	30.044 
23:15	67.4	67.4	67.4	73	58.4	0	0	---	0.00	30.043 
23:20	67.3	67.3	67.3	74	58.7	0	0	---	0.00	30.043 
23:25	66.9	66.9	66.9	74	58.3	0	0	---	0.00	30.043 
23:30	66.8	66.8	66.8	75	58.6	0	0	---	0.00	30.050 
23:35	66.4	66.4	66.4	76	58.6	0	0	---	0.00	30.050 
23:40	66.3	66.3	66.3	76	58.5	0	0	---	0.00	30.050 
23:45	66.0	66.0	66.0	77	58.6	0	0	---	0.00	30.059 
23:50	65.8	65.8	65.8	77	58.4	0	0	---	0.00	30.059 
23:55	65.5	65.5	65.5	78	58.5	0	0	---	0.00	30.059 

CoCoRaHS
IN-AL-39
A2 Web Hosting
Creative Commons License
GoDaddy
search engine by freefind advanced

loaded 2018-11-15 17:43:46 • last modified 2010-11-18 10:43:29
Privacy PolicyDisclaimer
• wx.awcolley.com is powered by PmWiki v.2002016 •
• all content (unless otherwise noted) © 2018 A W Colley